createdAt,value
2023-01-20T00:00:49.712Z,94.46
2023-01-20T00:01:49.652Z,94.62
2023-01-20T00:02:49.647Z,94.72
2023-01-20T00:03:49.589Z,94.62
2023-01-20T00:05:10.687Z,94.72
2023-01-20T00:05:49.540Z,94.62
2023-01-20T00:06:49.595Z,94.62
2023-01-20T00:07:49.509Z,94.62
2023-01-20T00:08:49.526Z,94.72
2023-01-20T00:09:49.470Z,94.87
2023-01-20T00:10:49.490Z,94.87
2023-01-20T00:11:49.505Z,94.87
2023-01-20T00:12:49.489Z,94.97
2023-01-20T00:13:49.454Z,95.07
2023-01-20T00:14:49.476Z,95.14
2023-01-20T00:15:49.426Z,95.14
2023-01-20T00:16:49.459Z,95.07
2023-01-20T00:17:49.373Z,94.97
2023-01-20T00:18:49.416Z,94.97
2023-01-20T00:19:49.343Z,95.07
2023-01-20T00:20:49.368Z,95.18
2023-01-20T00:21:49.330Z,95.29
2023-01-20T00:22:49.364Z,95.50
2023-01-20T00:23:49.329Z,95.60
2023-01-20T00:24:49.306Z,95.70
2023-01-20T00:25:49.268Z,95.70
2023-01-20T00:26:49.291Z,95.81
2023-01-20T00:27:49.234Z,95.81
2023-01-20T00:28:49.275Z,95.81
2023-01-20T00:29:49.222Z,95.92
2023-01-20T00:30:49.287Z,95.92
2023-01-20T00:31:49.191Z,96.02
2023-01-20T00:32:49.212Z,96.02
2023-01-20T00:33:49.203Z,96.02
2023-01-20T00:34:49.181Z,95.92
2023-01-20T00:35:49.155Z,95.70
2023-01-20T00:36:49.177Z,95.50
2023-01-20T00:37:49.142Z,95.29
2023-01-20T00:38:49.163Z,95.18
2023-01-20T00:39:49.093Z,95.12
2023-01-20T00:40:49.120Z,95.18
2023-01-20T00:41:49.097Z,95.29
2023-01-20T00:42:49.083Z,95.18
2023-01-20T00:43:49.056Z,95.23
2023-01-20T00:44:49.087Z,95.12
2023-01-20T00:45:49.036Z,95.12
2023-01-20T00:46:49.089Z,95.12
2023-01-20T00:47:48.988Z,95.23
2023-01-20T00:48:49.018Z,95.33
2023-01-20T00:49:49.007Z,95.43
2023-01-20T00:50:48.999Z,95.54
2023-01-20T00:51:49.005Z,95.54
2023-01-20T00:52:48.958Z,95.54
2023-01-20T00:53:48.954Z,95.54
2023-01-20T00:54:48.933Z,95.54
2023-01-20T00:55:48.899Z,95.43
2023-01-20T00:56:48.903Z,95.33
2023-01-20T00:57:48.896Z,95.33
2023-01-20T00:58:48.886Z,95.23
2023-01-20T00:59:48.843Z,95.23
2023-01-20T01:00:48.877Z,95.23
2023-01-20T01:01:49.055Z,95.33
2023-01-20T01:02:48.821Z,95.33
2023-01-20T01:03:48.799Z,95.33
2023-01-20T01:04:48.803Z,95.43
2023-01-20T01:05:48.777Z,95.43
2023-01-20T01:06:48.796Z,95.48
2023-01-20T01:07:48.735Z,95.48
2023-01-20T01:08:48.766Z,95.58
2023-01-20T01:09:48.707Z,95.68
2023-01-20T01:10:48.722Z,95.75
2023-01-20T01:11:48.714Z,95.96
2023-01-20T01:12:48.703Z,95.96
2023-01-20T01:13:48.668Z,96.06
2023-01-20T01:14:48.668Z,95.96
2023-01-20T01:15:48.644Z,95.86
2023-01-20T01:16:48.650Z,95.79
2023-01-20T01:17:48.624Z,95.79
2023-01-20T01:18:48.632Z,96.00
2023-01-20T01:19:48.576Z,96.11
2023-01-20T01:20:48.598Z,96.11
2023-01-20T01:21:48.558Z,96.11
2023-01-20T01:22:48.564Z,96.11
2023-01-20T01:23:48.547Z,96.00
2023-01-20T01:24:48.540Z,95.90
2023-01-20T01:25:48.536Z,95.90
2023-01-20T01:26:48.546Z,95.90
2023-01-20T01:27:48.489Z,95.90
2023-01-20T01:28:48.503Z,95.79
2023-01-20T01:29:48.457Z,95.90
2023-01-20T01:30:48.576Z,96.00
2023-01-20T01:31:48.488Z,96.11
2023-01-20T01:32:48.488Z,96.11
2023-01-20T01:33:48.418Z,96.21
2023-01-20T01:34:48.408Z,96.21
2023-01-20T01:35:48.370Z,96.21
2023-01-20T01:36:48.408Z,96.21
2023-01-20T01:37:48.352Z,96.21
2023-01-20T01:38:57.453Z,96.21
2023-01-20T01:39:48.329Z,96.21
2023-01-20T01:40:48.345Z,96.11
2023-01-20T01:41:48.336Z,96.00
2023-01-20T01:42:48.337Z,96.00
2023-01-20T01:43:48.297Z,96.00
2023-01-20T01:44:48.320Z,96.11
2023-01-20T01:45:48.284Z,96.11
2023-01-20T01:46:48.252Z,96.11
2023-01-20T01:47:48.243Z,96.00
2023-01-20T01:48:48.233Z,96.00
2023-01-20T01:49:48.211Z,96.00
2023-01-20T01:50:48.183Z,96.11
2023-01-20T01:51:48.242Z,96.11
2023-01-20T01:52:48.173Z,96.11
2023-01-20T01:53:48.277Z,96.11
2023-01-20T01:54:48.121Z,96.11
2023-01-20T01:55:48.161Z,96.11
2023-01-20T01:56:48.104Z,96.11
2023-01-20T01:57:48.116Z,96.11
2023-01-20T01:58:48.091Z,96.11
2023-01-20T01:59:48.095Z,96.11
2023-01-20T02:00:48.151Z,96.21
2023-01-20T02:01:48.177Z,96.21
2023-01-20T02:02:48.060Z,96.31
2023-01-20T02:03:48.045Z,96.31
2023-01-20T02:04:48.011Z,96.31
2023-01-20T02:05:48.040Z,96.31
2023-01-20T02:06:47.991Z,96.42
2023-01-20T02:07:47.997Z,96.53
2023-01-20T02:08:47.966Z,96.53
2023-01-20T02:09:48.006Z,96.53
2023-01-20T02:10:47.939Z,96.53
2023-01-20T02:11:47.939Z,96.42
2023-01-20T02:12:47.914Z,96.31
2023-01-20T02:13:47.921Z,96.31
2023-01-20T02:14:47.899Z,96.31
2023-01-20T02:15:47.875Z,96.31
2023-01-20T02:16:47.863Z,96.42
2023-01-20T02:17:47.867Z,96.53
2023-01-20T02:18:47.823Z,96.53
2023-01-20T02:19:47.841Z,96.63
2023-01-20T02:20:47.829Z,96.59
2023-01-20T02:21:47.805Z,96.59
2023-01-20T02:22:47.772Z,96.48
2023-01-20T02:23:47.811Z,96.37
2023-01-20T02:24:47.747Z,96.17
2023-01-20T02:25:47.779Z,96.06
2023-01-20T02:26:47.714Z,95.96
2023-01-20T02:27:47.744Z,95.86
2023-01-20T02:28:47.725Z,95.75
2023-01-20T02:29:47.721Z,95.64
2023-01-20T02:30:47.773Z,95.64
2023-01-20T02:31:47.716Z,95.54
2023-01-20T02:32:47.657Z,95.43
2023-01-20T02:33:47.684Z,95.43
2023-01-20T02:34:47.625Z,95.54
2023-01-20T02:35:47.633Z,95.64
2023-01-20T02:36:47.606Z,95.75
2023-01-20T02:37:47.618Z,95.86
2023-01-20T02:38:47.593Z,95.86
2023-01-20T02:39:47.592Z,95.86
2023-01-20T02:40:47.536Z,95.86
2023-01-20T02:41:47.553Z,95.75
2023-01-20T02:42:47.513Z,95.75
2023-01-20T02:43:47.583Z,95.75
2023-01-20T02:44:47.492Z,95.75
2023-01-20T02:45:47.543Z,95.75
2023-01-20T02:46:47.466Z,95.64
2023-01-20T02:47:47.477Z,95.64
2023-01-20T02:48:47.456Z,95.64
2023-01-20T02:49:47.459Z,95.75
2023-01-20T02:50:47.444Z,95.64
2023-01-20T02:51:47.423Z,95.60
2023-01-20T02:52:47.378Z,95.70
2023-01-20T02:53:47.395Z,95.60
2023-01-20T02:54:47.379Z,95.60
2023-01-20T02:55:47.374Z,95.39
2023-01-20T02:56:47.348Z,95.39
2023-01-20T02:57:47.361Z,95.33
2023-01-20T02:58:47.311Z,95.29
2023-01-20T02:59:47.359Z,95.39
2023-01-20T03:00:47.358Z,95.39
2023-01-20T03:01:47.656Z,95.39
2023-01-20T03:02:47.254Z,95.39
2023-01-20T03:03:47.321Z,95.39
2023-01-20T03:04:47.246Z,95.39
2023-01-20T03:05:47.280Z,95.39
2023-01-20T03:06:47.214Z,95.39
2023-01-20T03:07:47.220Z,95.39
2023-01-20T03:08:47.193Z,95.29
2023-01-20T03:09:47.223Z,95.18
2023-01-20T03:10:47.156Z,95.23
2023-01-20T03:11:47.192Z,95.23
2023-01-20T03:12:47.124Z,95.12
2023-01-20T03:13:47.140Z,95.12
2023-01-20T03:14:47.112Z,95.23
2023-01-20T03:15:47.108Z,95.23
2023-01-20T03:16:47.152Z,95.33
2023-01-20T03:17:47.083Z,95.23
2023-01-20T03:18:47.053Z,95.33
2023-01-20T03:19:47.064Z,95.43
2023-01-20T03:20:47.072Z,95.43
2023-01-20T03:21:47.035Z,95.64
2023-01-20T03:22:46.997Z,95.79
2023-01-20T03:23:47.015Z,95.90
2023-01-20T03:24:47.011Z,95.79
2023-01-20T03:25:46.986Z,95.90
2023-01-20T03:26:46.967Z,96.00
2023-01-20T03:27:46.962Z,96.00
2023-01-20T03:28:46.933Z,96.21
2023-01-20T03:29:46.941Z,96.27
2023-01-20T03:30:47.021Z,96.17
2023-01-20T03:31:47.045Z,96.17
2023-01-20T03:32:46.884Z,96.17
2023-01-20T03:33:46.887Z,96.17
2023-01-20T03:34:46.844Z,96.17
2023-01-20T03:35:46.884Z,96.06
2023-01-20T03:36:46.827Z,96.06
2023-01-20T03:37:46.858Z,96.06
2023-01-20T03:38:46.798Z,95.96
2023-01-20T03:39:46.827Z,95.86
2023-01-20T03:40:46.771Z,95.75
2023-01-20T03:41:46.781Z,95.75
2023-01-20T03:42:46.749Z,95.54
2023-01-20T03:43:46.784Z,95.54
2023-01-20T03:44:46.742Z,95.54
2023-01-20T03:45:46.764Z,95.43
2023-01-20T03:46:46.701Z,95.43
2023-01-20T03:47:46.696Z,95.58
2023-01-20T03:48:46.664Z,95.68
2023-01-20T03:49:46.718Z,95.79
2023-01-20T03:50:46.668Z,96.00
2023-01-20T03:51:46.660Z,96.00
2023-01-20T03:52:48.736Z,96.11
2023-01-20T03:53:46.633Z,96.06
2023-01-20T03:54:46.595Z,96.17
2023-01-20T03:55:46.630Z,96.17
2023-01-20T03:56:46.566Z,96.17
2023-01-20T03:57:46.582Z,96.06
2023-01-20T03:58:46.541Z,96.06
2023-01-20T03:59:46.556Z,96.06
2023-01-20T04:00:46.533Z,96.06
2023-01-20T04:01:46.620Z,95.96
2023-01-20T04:02:46.491Z,95.86
2023-01-20T04:03:46.603Z,95.86
2023-01-20T04:04:46.463Z,95.75
2023-01-20T04:05:46.498Z,95.64
2023-01-20T04:06:46.451Z,95.64
2023-01-20T04:07:46.444Z,95.54
2023-01-20T04:08:46.402Z,95.43
2023-01-20T04:09:46.421Z,95.43
2023-01-20T04:10:46.410Z,95.43
2023-01-20T04:11:46.409Z,95.43
2023-01-20T04:12:46.353Z,95.43
2023-01-20T04:13:46.384Z,95.33
2023-01-20T04:14:46.326Z,95.33
2023-01-20T04:15:46.385Z,95.23
2023-01-20T04:16:46.306Z,95.12
2023-01-20T04:17:46.323Z,95.07
2023-01-20T04:18:46.309Z,95.12
2023-01-20T04:19:46.310Z,95.07
2023-01-20T04:20:46.271Z,95.07
2023-01-20T04:21:46.287Z,94.97
2023-01-20T04:22:46.226Z,94.87
2023-01-20T04:23:46.239Z,94.91
2023-01-20T04:24:46.231Z,94.91
2023-01-20T04:25:46.225Z,94.91
2023-01-20T04:26:46.214Z,95.01
2023-01-20T04:27:46.198Z,94.91
2023-01-20T04:28:46.174Z,94.81
2023-01-20T04:29:46.161Z,94.70
2023-01-20T04:30:46.269Z,94.70
2023-01-20T04:31:46.154Z,94.85
2023-01-20T04:32:46.132Z,94.95
2023-01-20T04:33:46.172Z,95.27
2023-01-20T04:34:46.087Z,95.37
2023-01-20T04:35:46.094Z,95.58
2023-01-20T04:36:46.050Z,95.68
2023-01-20T04:37:46.085Z,95.79
2023-01-20T04:38:46.053Z,95.79
2023-01-20T04:39:46.048Z,95.90
2023-01-20T04:40:46.007Z,95.94
2023-01-20T04:41:46.008Z,96.15
2023-01-20T04:42:45.966Z,96.25
2023-01-20T04:43:45.985Z,96.36
2023-01-20T04:44:45.986Z,96.36
2023-01-20T04:45:45.963Z,96.36
2023-01-20T04:46:45.931Z,96.36
2023-01-20T04:47:45.959Z,96.36
2023-01-20T04:48:45.911Z,96.25
2023-01-20T04:49:45.954Z,96.36
2023-01-20T04:50:45.865Z,96.47
2023-01-20T04:51:45.893Z,96.57
2023-01-20T04:52:45.842Z,96.67
2023-01-20T04:53:45.851Z,96.73
2023-01-20T04:54:45.837Z,96.73
2023-01-20T04:55:45.825Z,96.67
2023-01-20T04:56:45.797Z,96.57
2023-01-20T04:57:45.815Z,96.57
2023-01-20T04:58:45.780Z,96.57
2023-01-20T04:59:45.796Z,96.47
2023-01-20T05:00:45.733Z,96.36
2023-01-20T05:01:45.998Z,96.36
2023-01-20T05:02:45.761Z,96.36
2023-01-20T05:03:45.723Z,96.36
2023-01-20T05:04:45.722Z,96.47
2023-01-20T05:05:45.698Z,96.57
2023-01-20T05:06:45.666Z,96.47
2023-01-20T05:07:45.690Z,96.36
2023-01-20T05:08:45.674Z,96.36
2023-01-20T05:09:45.646Z,96.25
2023-01-20T05:10:45.626Z,96.25
2023-01-20T05:11:45.647Z,96.25
2023-01-20T05:12:45.611Z,96.36
2023-01-20T05:13:45.609Z,96.15
2023-01-20T05:14:45.585Z,96.15
2023-01-20T05:15:45.617Z,96.04
2023-01-20T05:16:45.542Z,95.94
2023-01-20T05:17:45.580Z,95.94
2023-01-20T05:18:45.540Z,96.04
2023-01-20T05:19:45.536Z,96.04
2023-01-20T05:20:45.488Z,96.04
2023-01-20T05:21:45.510Z,96.04
2023-01-20T05:22:45.484Z,96.04
2023-01-20T05:23:45.483Z,95.94
2023-01-20T05:24:45.454Z,95.84
2023-01-20T05:25:45.460Z,95.84
2023-01-20T05:26:45.415Z,95.73
2023-01-20T05:27:45.453Z,95.73
2023-01-20T05:28:45.407Z,95.73
2023-01-20T05:29:45.403Z,95.88
2023-01-20T05:30:45.531Z,95.88
2023-01-20T05:31:45.404Z,95.88
2023-01-20T05:32:45.375Z,95.88
2023-01-20T05:33:45.406Z,95.88
2023-01-20T05:34:45.315Z,95.98
2023-01-20T05:35:45.345Z,95.98
2023-01-20T05:36:45.291Z,96.09
2023-01-20T05:37:45.321Z,96.09
2023-01-20T05:38:45.252Z,96.09
2023-01-20T05:39:45.292Z,95.98
2023-01-20T05:40:45.230Z,95.98
2023-01-20T05:41:45.241Z,95.98
2023-01-20T05:42:45.244Z,95.98
2023-01-20T05:43:45.227Z,95.88
2023-01-20T05:44:45.184Z,95.88
2023-01-20T05:45:45.199Z,95.88
2023-01-20T05:46:45.295Z,95.98
2023-01-20T05:47:45.172Z,95.98
2023-01-20T05:48:45.134Z,95.98
2023-01-20T05:49:45.148Z,96.09
2023-01-20T05:50:45.105Z,96.09
2023-01-20T05:51:45.156Z,96.09
2023-01-20T05:52:45.097Z,96.04
2023-01-20T05:53:45.134Z,95.94
2023-01-20T05:54:45.052Z,95.84
2023-01-20T05:55:45.071Z,95.88
2023-01-20T05:56:45.058Z,95.73
2023-01-20T05:57:45.048Z,95.67
2023-01-20T05:58:45.010Z,95.56
2023-01-20T05:59:45.017Z,95.56
2023-01-20T06:00:45.017Z,95.56
2023-01-20T06:01:44.986Z,95.46
2023-01-20T06:02:45.026Z,95.46
2023-01-20T06:03:45.019Z,95.46
2023-01-20T06:04:44.938Z,95.46
2023-01-20T06:05:44.964Z,95.56
2023-01-20T06:06:44.923Z,95.56
2023-01-20T06:07:44.887Z,95.56
2023-01-20T06:08:44.918Z,95.67
2023-01-20T06:09:44.872Z,95.67
2023-01-20T06:10:44.883Z,95.67
2023-01-20T06:11:44.856Z,95.67
2023-01-20T06:12:44.859Z,95.78
2023-01-20T06:13:44.846Z,95.78
2023-01-20T06:14:44.812Z,95.78
2023-01-20T06:15:44.804Z,95.78
2023-01-20T06:16:44.819Z,95.88
2023-01-20T06:17:44.777Z,95.84
2023-01-20T06:18:44.834Z,95.73
2023-01-20T06:19:44.756Z,95.62
2023-01-20T06:20:44.770Z,95.67
2023-01-20T06:21:46.835Z,95.62
2023-01-20T06:22:44.761Z,95.73
2023-01-20T06:23:44.700Z,95.73
2023-01-20T06:24:44.698Z,95.84
2023-01-20T06:25:44.708Z,95.84
2023-01-20T06:26:44.675Z,95.73
2023-01-20T06:27:44.634Z,95.73
2023-01-20T06:28:44.647Z,95.73
2023-01-20T06:29:44.656Z,95.62
2023-01-20T06:30:44.662Z,95.52
2023-01-20T06:31:44.679Z,95.52
2023-01-20T06:32:44.643Z,95.52
2023-01-20T06:33:44.570Z,95.48
2023-01-20T06:34:44.592Z,95.37
2023-01-20T06:35:44.548Z,95.17
2023-01-20T06:36:44.574Z,95.17
2023-01-20T06:37:44.506Z,95.17
2023-01-20T06:38:44.521Z,95.06
2023-01-20T06:39:44.491Z,94.95
2023-01-20T06:40:44.489Z,94.85
2023-01-20T06:41:44.481Z,94.85
2023-01-20T06:42:44.485Z,94.74
2023-01-20T06:43:44.451Z,94.54
2023-01-20T06:44:44.459Z,94.54
2023-01-20T06:45:44.417Z,94.43
2023-01-20T06:46:46.724Z,94.43
2023-01-20T06:47:44.383Z,94.32
2023-01-20T06:48:44.394Z,94.32
2023-01-20T06:49:44.370Z,94.22
2023-01-20T06:50:44.369Z,94.12
2023-01-20T06:51:44.356Z,94.12
2023-01-20T06:52:44.397Z,94.12
2023-01-20T06:53:44.336Z,94.12
2023-01-20T06:54:44.335Z,94.22
2023-01-20T06:55:44.287Z,94.22
2023-01-20T06:56:44.307Z,94.22
2023-01-20T06:57:44.289Z,94.12
2023-01-20T06:58:44.294Z,94.22
2023-01-20T06:59:44.237Z,94.22
2023-01-20T07:00:44.296Z,94.22
2023-01-20T07:01:44.322Z,94.22
2023-01-20T07:02:44.404Z,94.22
2023-01-20T07:03:44.171Z,94.22
2023-01-20T07:04:44.217Z,94.22
2023-01-20T07:05:44.161Z,94.22
2023-01-20T07:06:44.168Z,94.32
2023-01-20T07:07:44.162Z,94.22
2023-01-20T07:08:44.160Z,94.12
2023-01-20T07:09:44.146Z,94.12
2023-01-20T07:10:44.105Z,94.16
2023-01-20T07:11:44.078Z,94.16
2023-01-20T07:12:44.152Z,94.16
2023-01-20T07:13:44.061Z,94.26
2023-01-20T07:14:44.064Z,94.16
2023-01-20T07:15:44.063Z,94.26
2023-01-20T07:16:44.096Z,94.37
2023-01-20T07:17:44.009Z,94.47
2023-01-20T07:18:44.017Z,94.68
2023-01-20T07:19:43.988Z,94.89
2023-01-20T07:20:44.014Z,95.00
2023-01-20T07:21:43.953Z,95.10
2023-01-20T07:22:43.967Z,95.00
2023-01-20T07:23:43.928Z,95.00
2023-01-20T07:24:43.952Z,95.00
2023-01-20T07:25:43.939Z,94.89
2023-01-20T07:26:43.932Z,94.89
2023-01-20T07:27:43.884Z,94.89
2023-01-20T07:28:43.885Z,94.89
2023-01-20T07:29:43.858Z,95.00
2023-01-20T07:30:43.930Z,94.89
2023-01-20T07:31:43.870Z,94.79
2023-01-20T07:32:43.829Z,94.68
2023-01-20T07:33:43.805Z,94.62
2023-01-20T07:34:43.842Z,94.62
2023-01-20T07:35:43.791Z,94.62
2023-01-20T07:36:43.790Z,94.83
2023-01-20T07:37:43.731Z,94.93
2023-01-20T07:38:43.773Z,95.04
2023-01-20T07:39:43.741Z,95.04
2023-01-20T07:40:43.746Z,95.04
2023-01-20T07:41:43.695Z,95.15
2023-01-20T07:42:43.733Z,95.25
2023-01-20T07:43:43.676Z,95.36
2023-01-20T07:44:43.692Z,95.42
2023-01-20T07:45:43.688Z,95.31
2023-01-20T07:46:43.664Z,95.21
2023-01-20T07:47:43.635Z,95.10
2023-01-20T07:48:43.697Z,95.04
2023-01-20T07:49:43.618Z,95.04
2023-01-20T07:50:43.623Z,95.04
2023-01-20T07:51:43.568Z,95.04
2023-01-20T07:52:43.583Z,95.10
2023-01-20T07:53:43.567Z,95.31
2023-01-20T07:54:43.544Z,95.31
2023-01-20T07:55:43.516Z,95.31
2023-01-20T07:56:43.544Z,95.42
2023-01-20T07:57:43.478Z,95.52
2023-01-20T07:58:43.542Z,95.52
2023-01-20T07:59:43.473Z,95.52
2023-01-20T08:00:43.519Z,95.52
2023-01-20T08:01:43.550Z,95.42
2023-01-20T08:02:43.432Z,95.27
2023-01-20T08:03:43.483Z,95.37
2023-01-20T08:04:43.435Z,95.27
2023-01-20T08:05:43.443Z,95.17
2023-01-20T08:06:43.390Z,95.06
2023-01-20T08:07:43.350Z,95.06
2023-01-20T08:08:43.403Z,94.95
2023-01-20T08:09:43.327Z,94.85
2023-01-20T08:10:43.938Z,94.74
2023-01-20T08:11:43.299Z,94.74
2023-01-20T08:12:43.336Z,94.74
2023-01-20T08:13:43.328Z,94.74
2023-01-20T08:14:43.327Z,94.81
2023-01-20T08:15:43.301Z,94.81
2023-01-20T08:16:43.350Z,94.81
2023-01-20T08:17:43.227Z,94.81
2023-01-20T08:18:43.275Z,94.81
2023-01-20T08:19:43.208Z,94.91
2023-01-20T08:20:43.229Z,94.91
2023-01-20T08:21:43.179Z,95.01
2023-01-20T08:22:43.203Z,95.01
2023-01-20T08:23:43.145Z,95.12
2023-01-20T08:24:43.200Z,95.12
2023-01-20T08:25:43.146Z,95.23
2023-01-20T08:26:43.152Z,95.23
2023-01-20T08:27:43.094Z,95.23
2023-01-20T08:28:43.121Z,95.18
2023-01-20T08:29:43.089Z,95.18
2023-01-20T08:30:43.203Z,95.29
2023-01-20T08:31:43.191Z,95.18
2023-01-20T08:32:43.124Z,95.07
2023-01-20T08:33:43.021Z,95.07
2023-01-20T08:34:43.073Z,95.07
2023-01-20T08:35:43.039Z,95.18
2023-01-20T08:36:43.053Z,95.25
2023-01-20T08:37:42.970Z,95.25
2023-01-20T08:38:42.962Z,95.25
2023-01-20T08:39:42.991Z,95.35
2023-01-20T08:40:42.974Z,95.35
2023-01-20T08:41:42.993Z,95.45
2023-01-20T08:42:42.928Z,95.41
2023-01-20T08:43:42.932Z,95.31
2023-01-20T08:44:42.895Z,95.41
2023-01-20T08:45:42.920Z,95.37
2023-01-20T08:46:42.858Z,95.26
2023-01-20T08:47:42.902Z,95.11
2023-01-20T08:48:42.830Z,95.01
2023-01-20T08:49:42.841Z,94.86
2023-01-20T08:50:42.852Z,94.65
2023-01-20T08:51:42.883Z,94.44
2023-01-20T08:52:42.782Z,94.09
2023-01-20T08:53:42.808Z,93.88
2023-01-20T08:54:42.766Z,93.63
2023-01-20T08:55:42.789Z,93.41
2023-01-20T08:56:42.725Z,93.27
2023-01-20T08:57:42.751Z,93.27
2023-01-20T08:58:42.706Z,93.02
2023-01-20T08:59:42.760Z,92.60
2023-01-20T09:00:42.686Z,92.18
2023-01-20T09:01:42.738Z,92.14
2023-01-20T09:02:42.799Z,91.72
2023-01-20T09:03:49.417Z,91.20
2023-01-20T09:04:42.632Z,91.00
2023-01-20T09:05:42.630Z,91.00
2023-01-20T09:06:42.598Z,90.95
2023-01-20T09:07:42.644Z,91.06
2023-01-20T09:08:42.583Z,90.95
2023-01-20T09:09:42.598Z,90.75
2023-01-20T09:10:42.552Z,90.64
2023-01-20T09:11:42.651Z,90.75
2023-01-20T09:12:42.550Z,90.60
2023-01-20T09:13:42.532Z,90.50
2023-01-20T09:14:42.534Z,90.45
2023-01-20T09:15:42.604Z,90.04
2023-01-20T09:16:42.513Z,90.04
2023-01-20T09:17:42.496Z,89.69
2023-01-20T09:18:42.444Z,89.06
2023-01-20T09:19:42.493Z,88.64
2023-01-20T09:20:42.425Z,88.43
2023-01-20T09:21:42.454Z,88.12
2023-01-20T09:22:42.378Z,88.40
2023-01-20T09:23:42.412Z,88.09
2023-01-20T09:24:42.375Z,87.84
2023-01-20T09:25:42.363Z,87.21
2023-01-20T09:26:42.377Z,86.44
2023-01-20T09:27:42.370Z,85.82
2023-01-20T09:28:42.321Z,85.10
2023-01-20T09:29:42.346Z,85.10
2023-01-20T09:30:42.355Z,84.84
2023-01-20T09:31:42.366Z,84.27
2023-01-20T09:32:42.256Z,84.16
2023-01-20T09:33:42.261Z,84.37
2023-01-20T09:34:42.243Z,84.89
2023-01-20T09:35:42.269Z,84.27
2023-01-20T09:36:42.209Z,84.58
2023-01-20T09:37:42.270Z,84.53
2023-01-20T09:38:42.175Z,84.22
2023-01-20T09:39:42.204Z,84.12
2023-01-20T09:40:42.184Z,84.33
2023-01-20T09:41:42.329Z,83.98
2023-01-20T09:42:42.168Z,83.36
2023-01-20T09:43:42.147Z,83.36
2023-01-20T09:44:42.107Z,83.04
2023-01-20T09:45:42.126Z,83.25
2023-01-20T09:46:42.099Z,83.87
2023-01-20T09:47:42.100Z,84.15
2023-01-20T09:48:42.095Z,83.63
2023-01-20T09:49:42.096Z,82.97
2023-01-20T09:50:42.049Z,82.03
2023-01-20T09:51:42.049Z,81.51
2023-01-20T09:52:42.036Z,80.99
2023-01-20T09:53:42.046Z,81.30
2023-01-20T09:54:41.991Z,80.96
2023-01-20T09:55:42.006Z,80.65
2023-01-20T09:56:41.966Z,79.99
2023-01-20T09:57:41.957Z,79.78
2023-01-20T09:58:41.960Z,79.06
2023-01-20T09:59:41.965Z,79.23
2023-01-20T10:00:41.890Z,78.71
2023-01-20T10:01:41.984Z,78.71
2023-01-20T10:02:41.889Z,79.16
2023-01-20T10:03:41.913Z,79.02
2023-01-20T10:04:41.841Z,79.13
2023-01-20T10:05:41.981Z,78.99
2023-01-20T10:06:41.835Z,78.57
2023-01-20T10:07:41.853Z,78.92
2023-01-20T10:08:45.902Z,79.19
2023-01-20T10:09:41.869Z,78.57
2023-01-20T10:10:41.856Z,78.85
2023-01-20T10:11:41.886Z,77.98
2023-01-20T10:12:41.739Z,76.84
2023-01-20T10:13:41.810Z,76.18
2023-01-20T10:14:41.762Z,76.22
2023-01-20T10:15:41.835Z,75.95
2023-01-20T10:16:41.700Z,76.40
2023-01-20T10:17:41.695Z,77.26
2023-01-20T10:18:41.666Z,78.23
2023-01-20T10:19:42.354Z,79.27
2023-01-20T10:20:41.676Z,80.13
2023-01-20T10:21:41.620Z,81.13
2023-01-20T10:22:41.635Z,81.02
2023-01-20T10:23:41.632Z,80.96
2023-01-20T10:24:41.610Z,80.89
2023-01-20T10:25:41.587Z,81.41
2023-01-20T10:26:41.629Z,81.66
2023-01-20T10:27:41.577Z,82.32
2023-01-20T10:28:41.575Z,83.39
2023-01-20T10:29:41.526Z,84.22
2023-01-20T10:30:41.586Z,84.43
2023-01-20T10:31:41.602Z,84.22
2023-01-20T10:32:41.489Z,84.53
2023-01-20T10:33:41.467Z,84.89
2023-01-20T10:34:41.490Z,85.20
2023-01-20T10:35:41.467Z,84.89
2023-01-20T10:36:41.466Z,85.24
2023-01-20T10:37:41.459Z,85.75
2023-01-20T10:38:41.426Z,85.96
2023-01-20T10:39:41.385Z,85.86
2023-01-20T10:40:41.456Z,86.17
2023-01-20T10:41:41.436Z,86.38
2023-01-20T10:42:41.370Z,86.07
2023-01-20T10:43:41.363Z,85.96
2023-01-20T10:44:41.344Z,86.07
2023-01-20T10:45:41.300Z,86.27
2023-01-20T10:46:41.338Z,86.27
2023-01-20T10:47:41.323Z,86.49
2023-01-20T10:48:41.302Z,86.59
2023-01-20T10:49:41.249Z,86.49
2023-01-20T10:50:41.279Z,86.59
2023-01-20T10:51:41.223Z,86.80
2023-01-20T10:52:41.270Z,86.90
2023-01-20T10:53:41.210Z,86.90
2023-01-20T10:54:41.242Z,87.21
2023-01-20T10:55:41.174Z,87.21
2023-01-20T10:56:41.205Z,87.01
2023-01-20T10:57:41.192Z,86.90
2023-01-20T10:58:41.178Z,86.76
2023-01-20T10:59:41.125Z,86.65
2023-01-20T11:00:41.129Z,86.76
2023-01-20T11:01:41.109Z,86.55
2023-01-20T11:02:41.140Z,86.76
2023-01-20T11:03:41.131Z,86.65
2023-01-20T11:04:41.085Z,86.13
2023-01-20T11:05:41.057Z,86.03
2023-01-20T11:06:41.072Z,85.93
2023-01-20T11:07:41.015Z,85.72
2023-01-20T11:08:42.562Z,85.93
2023-01-20T11:09:41.047Z,85.78
2023-01-20T11:10:41.009Z,85.78
2023-01-20T11:11:40.968Z,85.68
2023-01-20T11:12:40.992Z,84.95
2023-01-20T11:13:40.941Z,84.64
2023-01-20T11:14:40.971Z,84.84
2023-01-20T11:15:40.948Z,85.16
2023-01-20T11:16:40.950Z,85.10
2023-01-20T11:17:40.886Z,85.30
2023-01-20T11:18:40.899Z,85.41
2023-01-20T11:19:40.877Z,85.72
2023-01-20T11:20:40.890Z,85.30
2023-01-20T11:21:40.863Z,85.10
2023-01-20T11:22:40.837Z,85.30
2023-01-20T11:23:40.803Z,85.30
2023-01-20T11:24:40.828Z,85.51
2023-01-20T11:25:40.795Z,85.51
2023-01-20T11:26:40.789Z,85.61
2023-01-20T11:27:40.761Z,85.75
2023-01-20T11:28:40.763Z,86.07
2023-01-20T11:29:40.716Z,85.96
2023-01-20T11:30:40.771Z,85.72
2023-01-20T11:31:40.913Z,85.51
2023-01-20T11:32:40.696Z,85.30
2023-01-20T11:33:40.682Z,85.51
2023-01-20T11:34:40.677Z,85.47
2023-01-20T11:35:40.680Z,85.47
2023-01-20T11:36:40.663Z,85.16
2023-01-20T11:37:40.642Z,85.16
2023-01-20T11:38:40.658Z,85.10
2023-01-20T11:39:40.706Z,85.30
2023-01-20T11:40:40.637Z,85.41
2023-01-20T11:41:40.581Z,85.51
2023-01-20T11:42:40.583Z,85.36
2023-01-20T11:43:40.584Z,84.74
2023-01-20T11:44:40.557Z,84.33
2023-01-20T11:45:40.514Z,84.22
2023-01-20T11:46:40.566Z,84.43
2023-01-20T11:47:40.518Z,84.22
2023-01-20T11:48:40.551Z,84.08
2023-01-20T11:49:40.477Z,84.08
2023-01-20T11:50:40.539Z,83.56
2023-01-20T11:51:40.484Z,83.36
2023-01-20T11:52:40.450Z,83.36
2023-01-20T11:53:40.425Z,83.36
2023-01-20T11:54:40.419Z,83.04
2023-01-20T11:55:40.385Z,82.63
2023-01-20T11:56:40.426Z,82.42
2023-01-20T11:57:40.365Z,82.94
2023-01-20T11:58:40.403Z,83.36
2023-01-20T11:59:40.330Z,83.36
2023-01-20T12:00:40.348Z,82.94
2023-01-20T12:01:40.314Z,82.73
2023-01-20T12:02:40.321Z,82.73
2023-01-20T12:03:40.319Z,82.73
2023-01-20T12:04:40.311Z,82.84
2023-01-20T12:05:40.266Z,82.94
2023-01-20T12:06:40.268Z,82.67
2023-01-20T12:07:40.235Z,82.35
2023-01-20T12:08:40.806Z,82.67
2023-01-20T12:09:40.233Z,83.29
2023-01-20T12:10:40.216Z,83.53
2023-01-20T12:11:40.188Z,83.74
2023-01-20T12:12:40.199Z,84.05
2023-01-20T12:13:40.167Z,83.91
2023-01-20T12:14:40.203Z,83.60
2023-01-20T12:15:40.159Z,83.29
2023-01-20T12:16:40.297Z,83.50
2023-01-20T12:17:40.106Z,82.87
2023-01-20T12:18:45.407Z,83.08
2023-01-20T12:19:40.075Z,82.56
2023-01-20T12:20:54.132Z,82.46
2023-01-20T12:21:40.079Z,82.67
2023-01-20T12:22:40.091Z,82.56
2023-01-20T12:23:40.016Z,82.56
2023-01-20T12:24:43.128Z,82.77
2023-01-20T12:25:40.024Z,83.08
2023-01-20T12:26:40.024Z,83.08
2023-01-20T12:27:39.993Z,82.35
2023-01-20T12:28:40.005Z,82.15
2023-01-20T12:29:39.957Z,82.15
2023-01-20T12:30:39.988Z,82.25
2023-01-20T12:31:39.967Z,82.77
2023-01-20T12:32:39.935Z,83.18
2023-01-20T12:33:39.931Z,83.18
2023-01-20T12:34:39.903Z,82.77
2023-01-20T12:35:39.852Z,82.98
2023-01-20T12:36:39.905Z,82.56
2023-01-20T12:37:39.840Z,82.25
2023-01-20T12:38:39.927Z,81.63
2023-01-20T12:39:39.823Z,81.32
2023-01-20T12:40:39.804Z,81.01
2023-01-20T12:41:39.821Z,81.42
2023-01-20T12:42:39.805Z,81.70
2023-01-20T12:43:39.764Z,81.07
2023-01-20T12:44:39.798Z,80.66
2023-01-20T12:45:39.787Z,80.55
2023-01-20T12:46:39.740Z,80.66
2023-01-20T12:47:39.695Z,80.35
2023-01-20T12:48:39.749Z,79.83
2023-01-20T12:49:39.696Z,79.51
2023-01-20T12:50:39.680Z,78.89
2023-01-20T12:51:39.682Z,78.99
2023-01-20T12:52:39.832Z,78.78